Flight Track Log - Related Links

Times and Time Zones

All times are in EDT time to prevent confusion due to time zone crossing. See the N31KE flight status page for this flight to view local times or setup timezone preferences in your user account.

Time Position Orientation Groundspeed Altitude Reporting Facility
EDT Latitude Longitude Course Direction KTS MPH feet Rate Location/Type
Mon 01:08:47 PM 37.2369 -76.7839 259° West 96 110 1,300  Level Washington Center
Mon 01:09:54 PM 37.2325 -76.8125 259° West 72 83 1,700 281 Climbing Washington Center
Mon 01:10:55 PM 37.2386 -76.8361 288° West 81 93 1,900 305 Climbing Washington Center
Mon 01:13:11 PM 37.2500 -76.9000 283° West 90 104 2,700 367 Climbing Potomac TRACON
Mon 01:14:11 PM 37.2667 -76.9167 321° Northwest 92 106 3,100 300 Climbing Potomac TRACON
Mon 01:15:11 PM 37.2667 -76.9500 270° West 94 108 3,300 267 Climbing Potomac TRACON
Mon 01:17:11 PM 37.2833 -77.0167 287° West 94 108 3,900 267 Climbing Potomac TRACON
Mon 01:18:11 PM 37.3000 -77.0500 302° West 98 113 4,100 50 Climbing Potomac TRACON
Mon 01:19:11 PM 37.3000 -77.0833 270° West 114 131 4,000 -50 Descending Potomac TRACON
Mon 01:20:12 PM 37.3167 -77.1167 302° West 103 119 4,000  Level Potomac TRACON
Mon 01:21:11 PM 37.3167 -77.1500 270° West 103 119 4,000  Level Potomac TRACON
Mon 01:22:11 PM 37.3333 -77.1833 302° West 105 121 4,000  Level Potomac TRACON
Mon 01:23:12 PM 37.3333 -77.2167 270° West 104 120 4,000  Level Potomac TRACON
Mon 01:24:12 PM 37.3500 -77.2500 302° West 106 122 4,000  Level Potomac TRACON
Mon 01:25:12 PM 37.3667 -77.2833 302° West 114 131 4,000 -50 Level Potomac TRACON
Mon 01:26:12 PM 37.3667 -77.3167 270° West 108 124 3,900  Descending Potomac TRACON
Mon 01:27:12 PM 37.3833 -77.3500 302° West 104 120 4,000 50 Climbing Potomac TRACON
Mon 01:28:12 PM 37.3833 -77.4000 270° West 109 125 4,000  Level Potomac TRACON
Mon 01:29:06 PM 37.4000 -77.4333 302° West 108 124 4,000  Level Potomac TRACON
Mon 01:30:06 PM 37.4000 -77.4667 270° West 122 140 4,000  Level Potomac TRACON
Mon 01:31:06 PM 37.4167 -77.5000 302° West 109 125 4,000  Level Potomac TRACON
Mon 01:32:06 PM 37.4167 -77.5333 270° West 116 133 4,000  Level Potomac TRACON
Mon 01:33:06 PM 37.4333 -77.5667 302° West 100 115 4,000  Level Potomac TRACON
Mon 01:34:07 PM 37.4333 -77.6000 270° West 105 121 4,000 -50 Level Potomac TRACON
Mon 01:35:07 PM 37.4500 -77.6333 302° West 105 121 3,900  Descending Potomac TRACON
Mon 01:36:07 PM 37.4500 -77.6667 270° West 114 131 4,000 50 Climbing Potomac TRACON
Mon 01:37:07 PM 37.4667 -77.7167 293° West 108 124 4,000  Level Potomac TRACON
Mon 01:38:01 PM 37.4667 -77.7333 270° West 105 121 4,000  Level Potomac TRACON
Mon 01:39:01 PM 37.5000 -77.7667 322° Northwest 109 125 4,000  Level Potomac TRACON
Mon 01:40:01 PM 37.5167 -77.8000 302° West 110 127 4,000  Level Potomac TRACON
Mon 01:41:01 PM 37.5333 -77.8167 322° Northwest 109 125 4,000  Level Potomac TRACON
Mon 01:42:01 PM 37.5500 -77.8500 302° West 105 121 4,000  Level Potomac TRACON
Mon 01:43:01 PM 37.5500 -77.8833 270° West 104 120 4,000 -50 Level Potomac TRACON
Mon 01:44:01 PM 37.5667 -77.9167 302° West 105 121 3,900  Descending Potomac TRACON
Mon 01:44:56 PM 37.5833 -77.9500 302° West 145 167 4,000  Climbing Potomac TRACON
Mon 01:45:56 PM 37.5833 -77.9833 270° West 107 123 3,900 -50 Descending Potomac TRACON
Mon 01:46:56 PM 37.6000 -78.0167 302° West 104 120 3,900 50 Level Potomac TRACON
Mon 01:47:57 PM 37.6000 -78.0500 270° West 110 127 4,000 50 Climbing Potomac TRACON
Mon 01:48:57 PM 37.6167 -78.1000 293° West 117 135 4,000 -53 Level Potomac TRACON
Mon 01:49:51 PM 37.6167 -78.1333 270° West 112 129 3,900  Descending Potomac TRACON
Mon 01:50:51 PM 37.6333 -78.1667 302° West 111 128 4,000 50 Climbing Potomac TRACON
Mon 01:51:51 PM 37.6333 -78.2000 270° West 115 132 4,000 -48 Level Potomac TRACON
Mon 01:52:57 PM 37.6500 -78.2500 293° West 108 124 3,900  Descending Potomac TRACON
Mon 01:53:51 PM 37.6500 -78.2667 270° West 105 121 4,000 53 Climbing Potomac TRACON
Mon 01:54:51 PM 37.6667 -78.3167 293° West 115 132 4,000  Level Potomac TRACON
Mon 01:55:51 PM 37.6667 -78.3500 270° West 108 124 4,000 -50 Level Potomac TRACON
Mon 01:56:51 PM 37.6833 -78.3833 302° West 105 121 3,900  Descending Potomac TRACON
Mon 01:57:51 PM 37.6833 -78.4167 270° West 92 106 4,000 211 Climbing Potomac TRACON
Mon 01:58:45 PM 37.6833 -78.4333 270° West 79 91 4,300 300 Climbing Potomac TRACON
Mon 01:59:51 PM 37.7000 -78.4667 302° West 79 91 4,600 429 Climbing Potomac TRACON
Mon 02:00:51 PM 37.7000 -78.5000 270° West 79 91 5,200 400 Climbing Potomac TRACON
Mon 02:01:51 PM 37.7167 -78.5167 322° Northwest 78 90 5,400 250 Climbing Potomac TRACON
Mon 02:02:51 PM 37.7167 -78.5500 270° West 80 92 5,700 313 Climbing Potomac TRACON
Mon 02:03:46 PM 37.7167 -78.5667 270° West 72 83 6,000 157 Climbing Potomac TRACON
Mon 02:04:46 PM 37.7333 -78.6000 302° West 91 105 6,000 -50 Level Potomac TRACON
Mon 02:05:46 PM 37.7333 -78.6333 270° West 102 117 5,900  Descending Potomac TRACON
Mon 02:06:46 PM 37.7500 -78.6667 302° West 100 115 6,000 50 Climbing Potomac TRACON
Mon 02:07:46 PM 37.7500 -78.7000 270° West 107 123 6,000  Level Potomac TRACON
Mon 02:08:46 PM 37.7500 -78.7333 270° West 94 108 6,000  Level Potomac TRACON
Mon 02:09:16 PM 37.7647 -78.7494 319° Northwest 97 112 6,000  Level Washington Center
Mon 02:10:14 PM 37.7722 -78.7811 287° West 102 117 6,000  Level Washington Center
Mon 02:11:16 PM 37.7817 -78.8183 288° West 110 127 6,000 49 Level Washington Center
Mon 02:12:16 PM 37.7889 -78.8528 285° West 105 121 6,100  Climbing Washington Center
Mon 02:13:14 PM 37.7964 -78.8872 285° West 105 121 6,000 -51 Descending Washington Center
Mon 02:14:14 PM 37.8039 -78.9219 285° West 105 121 6,000  Level Washington Center
Mon 02:15:15 PM 37.8133 -78.9564 289° West 111 128 6,000  Level Washington Center
Mon 02:16:13 PM 37.8208 -78.9883 287° West 111 128 6,000  Level Washington Center
Mon 02:17:14 PM 37.8258 -79.0253 280° West 111 128 6,000  Level Washington Center
Mon 02:18:15 PM 37.8333 -79.0600 285° West 105 121 6,000  Level Washington Center
Mon 02:19:15 PM 37.8408 -79.0892 288° West 105 121 6,000 -50 Level Washington Center
Mon 02:20:15 PM 37.8481 -79.1211 286° West 105 121 5,900 -50 Descending Washington Center
Mon 02:21:16 PM 37.8575 -79.1531 291° West 105 121 5,900  Level Washington Center
Mon 02:22:15 PM 37.8631 -79.1822 284° West 105 121 5,900 100 Level Washington Center
Mon 02:23:16 PM 37.8703 -79.2169 285° West 105 121 6,100 50 Climbing Washington Center
Mon 02:24:14 PM 37.8797 -79.2514 289° West 105 121 6,000 50 Descending Washington Center
Mon 02:25:15 PM 37.8869 -79.2861 285° West 105 121 6,200 101 Climbing Washington Center
Mon 02:26:13 PM 37.8922 -79.3153 283° West 105 121 6,200 -101 Level Washington Center
Mon 02:27:14 PM 37.8997 -79.3444 288° West 100 115 6,000  Descending Washington Center
Mon 02:28:14 PM 37.9072 -79.3764 287° West 95 109 6,200 50 Climbing Washington Center
Mon 02:29:15 PM 37.9144 -79.4083 286° West 95 109 6,100 -49 Descending Washington Center
Mon 02:30:16 PM 37.9217 -79.4431 285° West 95 109 6,100 101 Level Washington Center
Mon 02:31:14 PM 37.9269 -79.4697 284° West 95 109 6,300 254 Climbing Washington Center
Mon 02:32:14 PM 37.9325 -79.4911 288° West 83 96 6,600 248 Climbing Washington Center
Mon 02:33:15 PM 37.9381 -79.5150 286° West 78 90 6,800 197 Climbing Washington Center
Mon 02:34:16 PM 37.9436 -79.5364 288° West 68 78 7,000 149 Climbing Washington Center
Mon 02:35:16 PM 37.9469 -79.5603 280° West 68 78 7,100 51 Climbing Washington Center
Mon 02:36:14 PM 37.9544 -79.5894 288° West 73 84 7,100  Level Washington Center
Mon 02:37:14 PM 37.9597 -79.6214 282° West 84 97 7,100  Level Washington Center
Mon 02:38:15 PM 37.9669 -79.6533 286° West 90 104 7,100 -49 Level Washington Center
Mon 02:39:16 PM 37.9742 -79.6881 285° West 95 109 7,000  Descending Washington Center
Mon 02:40:16 PM 37.9814 -79.7175 287° West 95 109 7,100 51 Climbing Washington Center
Mon 02:41:14 PM 37.9906 -79.7497 290° West 95 109 7,100  Level Washington Center
Mon 02:42:14 PM 37.9978 -79.7842 285° West 95 109 7,100  Level Washington Center
Mon 02:43:14 PM 38.0031 -79.8161 282° West 95 109 7,100  Level Washington Center
Mon 02:44:15 PM 38.0103 -79.8483 286° West 95 109 7,100  Level Washington Center
Mon 02:45:16 PM 38.0172 -79.8828 284° West 95 109 7,100  Level Washington Center
Mon 02:46:14 PM 38.0244 -79.9150 286° West 95 109 7,100 -50 Level Washington Center
Mon 02:47:15 PM 38.0317 -79.9469 286° West 100 115 7,000 -49 Descending Washington Center
Mon 02:48:16 PM 38.0369 -79.9736 284° West 100 115 7,000 50 Level Washington Center
Mon 02:49:16 PM 38.0458 -80.0111 287° West 100 115 7,100  Climbing Washington Center
Mon 02:50:14 PM 38.0531 -80.0458 285° West 100 115 7,000 -50 Descending Washington Center
Mon 02:51:15 PM 38.0603 -80.0725 289° West 100 115 7,000 50 Level Washington Center
Mon 02:52:15 PM 38.0656 -80.1019 283° West 94 108 7,100 50 Climbing Washington Center
Mon 02:53:15 PM 38.0706 -80.1339 281° West 89 102 7,100 -50 Level Washington Center
Mon 02:54:16 PM 38.0778 -80.1661 286° West 89 102 7,000  Descending Washington Center
Mon 02:55:14 PM 38.0850 -80.1956 287° West 89 102 7,100  Climbing Washington Center
Mon 02:56:14 PM 38.0939 -80.2303 288° West 89 102 7,000 -50 Descending Washington Center
Mon 02:57:14 PM 38.1011 -80.2650 285° West 94 108 7,000 50 Level Washington Center
Mon 02:58:15 PM 38.1081 -80.2972 285° West 99 114 7,100 49 Climbing Washington Center
Mon 02:59:16 PM 38.1131 -80.3264 282° West 99 114 7,100  Level Washington Center
Mon 03:00:13 PM 38.1181 -80.3586 281° West 99 114 7,100 -51 Level Washington Center
Mon 03:01:14 PM 38.1253 -80.3906 286° West 99 114 7,000  Descending Washington Center
Mon 03:02:14 PM 38.1306 -80.4175 284° West 99 114 7,100 99 Climbing Washington Center
Mon 03:03:15 PM 38.1375 -80.4494 285° West 94 108 7,200 34 Climbing Washington Center
Mon 03:05:09 PM 38.1500 -80.5022 287° West 92 106 7,200 102 Level Indianapolis Center
Mon 03:06:11 PM 38.1547 -80.5283 283° West 81 93 7,500 387 Climbing Indianapolis Center
Mon 03:07:13 PM 38.1603 -80.5528 286° West 66 76 8,000 293 Climbing Indianapolis Center
Mon 03:08:14 PM 38.1656 -80.5778 285° West 68 78 8,100  Climbing Indianapolis Center
Mon 03:09:16 PM 38.1858 -80.6014 318° Northwest 93 107 8,000  Descending Indianapolis Center
Mon 03:10:18 PM 38.1908 -80.6317 282° West 89 102 8,100 48 Climbing Indianapolis Center
Mon 03:11:20 PM 38.1964 -80.6631 283° West 89 102 8,100 -48 Level Indianapolis Center
Mon 03:12:22 PM 38.2028 -80.6989 283° West 98 113 8,000 -48 Descending Indianapolis Center
Mon 03:13:24 PM 38.2100 -80.7317 286° West 99 114 8,000 -242 Level Indianapolis Center
Mon 03:14:26 PM 38.2203 -80.7758 287° West 107 123 7,500 -532 Descending Indianapolis Center
Mon 03:15:28 PM 38.2283 -80.8156 284° West 114 131 6,900 -532 Descending Indianapolis Center
Mon 03:16:30 PM 38.2356 -80.8503 285° West 107 123 6,400 -581 Descending Indianapolis Center
Mon 03:17:32 PM 38.2431 -80.8853 285° West 105 121 5,700 -629 Descending Indianapolis Center
Mon 03:18:34 PM 38.2547 -80.9197 293° West 105 121 5,100 -339 Descending Indianapolis Center
Mon 03:19:36 PM 38.2658 -80.9544 292° West 105 121 5,000 -48 Descending Indianapolis Center
Mon 03:20:38 PM 38.2769 -80.9892 292° West 105 121 5,000  Level Indianapolis Center
Mon 03:21:40 PM 38.2906 -81.0283 294° West 105 121 5,000 -145 Level Indianapolis Center
Mon 03:22:42 PM 38.3017 -81.0608 294° West 103 119 4,700 -484 Descending Indianapolis Center
Mon 03:23:44 PM 38.3158 -81.1008 294° West 110 127 4,000 -339 Descending Indianapolis Center
Mon 03:24:46 PM 38.3286 -81.1383 293° West 116 133 4,000  Level Indianapolis Center
Mon 03:25:48 PM 38.3394 -81.1711 293° West 111 128 4,000  Level Indianapolis Center
Mon 03:26:50 PM 38.3503 -81.2039 293° West 105 121 4,000  Level Indianapolis Center
Mon 03:27:52 PM 38.3650 -81.2444 295° West 105 121 4,000  Level Indianapolis Center
Mon 03:28:54 PM 38.3775 -81.2789 295° West 105 121 4,000  Level Indianapolis Center
Mon 03:29:56 PM 38.3897 -81.3128 295° West 105 121 4,000  Level Indianapolis Center
Mon 03:30:58 PM 38.4022 -81.3450 296° West 105 121 4,000  Level Indianapolis Center
Mon 03:32:00 PM 38.4225 -81.3700 316° Northwest 108 124 4,000  Level Indianapolis Center
Mon 03:33:02 PM 38.4464 -81.3883 329° Northwest 103 119 4,000 -339 Level Indianapolis Center
Mon 03:34:04 PM 38.4722 -81.4128 323° Northwest 107 123 3,300 -677 Descending Indianapolis Center
Mon 03:35:06 PM 38.4631 -81.4622 257° West 119 137 2,600 -339 Descending Indianapolis Center
Mon 03:36:08 PM 38.4442 -81.4936 232° Southwest 125 144 2,600 -96 Level Indianapolis Center
Mon 03:37:11 PM 38.4253 -81.5219 230° Southwest 113 130 2,400 -432 Descending Indianapolis Center
Mon 03:38:13 PM 38.4047 -81.5533 230° Southwest 111 128 1,700 -677 Descending Indianapolis Center
Mon 03:40:00 PM 38.3667 -81.5833 231° Southwest  Level FlightAware Approximate

Login

Don't have an account? Register now (free) for customized features, flight alerts, and more!